Time;durP1;ratioP1;P1;durP2;ratioP2;P2;SDS_P1;SDS_P2;PMS_P1;PMS_P2;Temp;Humidity;BMP_temperature;BMP_pressure;BME280_temperature;BME280_humidity;BME280_pressure;Samples;Min_cycle;Max_cycle;Signal;HPM_P1;HPM_P2
2021/09/26 00:02:23;;;;;;;;;;;;;;;;;;4996510;28;19928;-68
2021/09/26 00:04:48;;;;;;;;;;;;;;;;;;5002902;28;20229;-68
2021/09/26 00:07:13;;;;;;;;;;;;;;;;;;4999238;28;19949;-68
2021/09/26 00:09:38;;;;;;;;;;;;;;;;;;4997878;28;20021;-67
2021/09/26 00:12:03;;;;;;;;;;;;;;;;;;4999560;28;20291;-68
2021/09/26 00:14:31;;;;;;;;;;;;;;;;;;4998554;28;20330;-67
2021/09/26 00:16:58;;;;;;;;;;;;;;;;;;5003100;28;19920;-68
2021/09/26 00:19:23;;;;;;;;;;;;;;;;;;4996827;28;20032;-69
2021/09/26 00:21:48;;;;;;;;;;;;;;;;;;4999348;28;20016;-68
2021/09/26 00:24:14;;;;;;;;;;;;;;;;;;4994288;28;20012;-67
2021/09/26 00:26:39;;;;;;;;;;;;;;;;;;5012920;28;19961;-69
2021/09/26 00:29:04;;;;;;;;;;;;;;;;;;4977174;28;19917;-69
2021/09/26 00:31:29;;;;;;;;;;;;;;;;;;4998704;28;19921;-68
2021/09/26 00:33:55;;;;;;;;;;;;;;;;;;4998264;28;19918;-67
2021/09/26 00:36:20;;;;;;;;;;;;;;;;;;4998706;28;19923;-68
2021/09/26 00:38:48;;;;;;;;;;;;;;;;;;5000166;28;19918;-68
2021/09/26 00:41:13;;;;;;;;;;;;;;;;;;4998434;28;19917;-68
2021/09/26 00:43:38;;;;;;;;;;;;;;;;;;4978959;28;20267;-67
2021/09/26 00:46:05;;;;;;;;;;;;;;;;;;4995129;28;19917;-68
2021/09/26 00:48:30;;;;;;;;;;;;;;;;;;4996731;28;19925;-69
2021/09/26 00:50:55;;;;;;;;;;;;;;;;;;5003017;28;19921;-68
2021/09/26 00:53:20;;;;;;;;;;;;;;;;;;4999489;28;19917;-69
2021/09/26 00:55:46;;;;;;;;;;;;;;;;;;4996717;28;19914;-67
2021/09/26 00:58:11;;;;;;;;;;;;;;;;;;5000554;28;19917;-68
2021/09/26 01:00:36;;;;;;;;;;;;;;;;;;4997268;28;19917;-69
2021/09/26 01:03:02;;;;;;;;;;;;;;;;;;4999988;28;19987;-67
2021/09/26 01:05:27;;;;;;;;;;;;;;;;;;5003519;28;19921;-68
2021/09/26 01:07:52;;;;;;;;;;;;;;;;;;5004538;28;19929;-67
2021/09/26 01:10:17;;;;;;;;;;;;;;;;;;5001095;28;20063;-67
2021/09/26 01:12:42;;;;;;;;;;;;;;;;;;4997491;28;20090;-69
2021/09/26 01:15:08;;;;;;;;;;;;;;;;;;4997746;28;20357;-68
2021/09/26 01:17:33;;;;;;;;;;;;;;;;;;4997715;28;20323;-67
2021/09/26 01:19:58;;;;;;;;;;;;;;;;;;4996176;28;19924;-69
2021/09/26 01:22:24;;;;;;;;;;;;;;;;;;4995780;28;19925;-67
2021/09/26 01:24:49;;;;;;;;;;;;;;;;;;4996966;28;19921;-68
2021/09/26 01:27:14;;;;;;;;;;;;;;;;;;4997801;28;19960;-67
2021/09/26 01:29:39;;;;;;;;;;;;;;;;;;4997303;28;20012;-68
2021/09/26 01:32:04;;;;;;;;;;;;;;;;;;4996413;28;19921;-68
2021/09/26 01:34:30;;;;;;;;;;;;;;;;;;4996086;28;19921;-66
2021/09/26 01:36:55;;;;;;;;;;;;;;;;;;5002173;28;19918;-68
2021/09/26 01:39:20;;;;;;;;;;;;;;;;;;4998842;28;19917;-67
2021/09/26 01:41:45;;;;;;;;;;;;;;;;;;4997539;28;19917;-67
2021/09/26 01:44:11;;;;;;;;;;;;;;;;;;5004347;28;19917;-67
2021/09/26 01:46:38;;;;;;;;;;;;;;;;;;4997384;28;20299;-68
2021/09/26 01:49:03;;;;;;;;;;;;;;;;;;4996325;28;19921;-68
2021/09/26 01:51:29;;;;;;;;;;;;;;;;;;5001095;28;20338;-67
2021/09/26 01:53:54;;;;;;;;;;;;;;;;;;4995363;28;20347;-68
2021/09/26 01:56:19;;;;;;;;;;;;;;;;;;4986325;28;19975;-69
2021/09/26 01:58:44;;;;;;;;;;;;;;;;;;4998135;28;20397;-68
2021/09/26 02:01:10;;;;;;;;;;;;;;;;;;4998507;28;19917;-68
2021/09/26 02:03:35;;;;;;;;;;;;;;;;;;4996487;28;19925;-68
2021/09/26 02:06:00;;;;;;;;;;;;;;;;;;5001691;28;20008;-68
2021/09/26 02:08:25;;;;;;;;;;;;;;;;;;5007245;28;19971;-69
2021/09/26 02:10:51;;;;;;;;;;;;;;;;;;4999432;28;19922;-67
2021/09/26 02:13:16;;;;;;;;;;;;;;;;;;5001177;28;19913;-68
2021/09/26 02:15:41;;;;;;;;;;;;;;;;;;5000564;28;19918;-67
2021/09/26 02:18:06;;;;;;;;;;;;;;;;;;5001206;28;20370;-67
2021/09/26 02:20:32;;;;;;;;;;;;;;;;;;5007123;28;19917;-67
2021/09/26 02:22:59;;;;;;;;;;;;;;;;;;5001061;28;20388;-67
2021/09/26 02:25:24;;;;;;;;;;;;;;;;;;5007541;28;20424;-68
2021/09/26 02:27:50;;;;;;;;;;;;;;;;;;5002925;28;19925;-67
2021/09/26 02:30:15;;;;;;;;;;;;;;;;;;5006441;28;19933;-67
2021/09/26 02:32:40;;;;;;;;;;;;;;;;;;5006379;28;19922;-69
2021/09/26 02:35:05;;;;;;;;;;;;;;;;;;5000725;28;20422;-68
2021/09/26 02:37:30;;;;;;;;;;;;;;;;;;4999660;28;20269;-68
2021/09/26 02:39:56;;;;;;;;;;;;;;;;;;5005632;28;20452;-68
2021/09/26 02:42:21;;;;;;;;;;;;;;;;;;4998960;28;20055;-67
2021/09/26 02:44:46;;;;;;;;;;;;;;;;;;4999549;28;19918;-68
2021/09/26 02:47:11;;;;;;;;;;;;;;;;;;4997384;28;20227;-67
2021/09/26 02:49:36;;;;;;;;;;;;;;;;;;4998039;28;19926;-68
2021/09/26 02:52:03;;;;;;;;;;;;;;;;;;4998569;28;20016;-67
2021/09/26 02:54:28;;;;;;;;;;;;;;;;;;5004332;28;19918;-68
2021/09/26 02:56:53;;;;;;;;;;;;;;;;;;5005889;28;20016;-67
2021/09/26 02:59:18;;;;;;;;;;;;;;;;;;5003947;28;20008;-67
2021/09/26 03:01:44;;;;;;;;;;;;;;;;;;5000673;28;20160;-68
2021/09/26 03:04:09;;;;;;;;;;;;;;;;;;4999704;28;20008;-67
2021/09/26 03:06:34;;;;;;;;;;;;;;;;;;4997092;28;19917;-67
2021/09/26 03:08:59;;;;;;;;;;;;;;;;;;5005584;28;19921;-67
2021/09/26 03:11:25;;;;;;;;;;;;;;;;;;4989120;28;19926;-67
2021/09/26 03:13:50;;;;;;;;;;;;;;;;;;5000820;28;19914;-67
2021/09/26 03:16:15;;;;;;;;;;;;;;;;;;5006597;28;19917;-68
2021/09/26 03:18:40;;;;;;;;;;;;;;;;;;4996989;28;19991;-67
2021/09/26 03:21:05;;;;;;;;;;;;;;;;;;5000628;28;19918;-67
2021/09/26 03:23:31;;;;;;;;;;;;;;;;;;5005344;28;19917;-67
2021/09/26 03:25:56;;;;;;;;;;;;;;;;;;5004857;28;20581;-67
2021/09/26 03:28:21;;;;;;;;;;;;;;;;;;4999281;28;20373;-66
2021/09/26 03:30:48;;;;;;;;;;;;;;;;;;4996023;28;20304;-68
2021/09/26 03:33:13;;;;;;;;;;;;;;;;;;5000474;28;19968;-67
2021/09/26 03:35:39;;;;;;;;;;;;;;;;;;4998270;28;19975;-67
2021/09/26 03:38:04;;;;;;;;;;;;;;;;;;4997923;28;19918;-67
2021/09/26 03:40:29;;;;;;;;;;;;;;;;;;4999733;28;19917;-67
2021/09/26 03:42:54;;;;;;;;;;;;;;;;;;4999065;28;20330;-67
2021/09/26 03:45:20;;;;;;;;;;;;;;;;;;5000593;28;20319;-70
2021/09/26 03:47:45;;;;;;;;;;;;;;;;;;4998606;28;20354;-68
2021/09/26 03:50:10;;;;;;;;;;;;;;;;;;4997389;28;19914;-68
2021/09/26 03:52:35;;;;;;;;;;;;;;;;;;4996284;28;19918;-67
2021/09/26 03:55:03;;;;;;;;;;;;;;;;;;5001958;28;20373;-68
2021/09/26 03:57:28;;;;;;;;;;;;;;;;;;4993087;28;19918;-68
2021/09/26 03:59:54;;;;;;;;;;;;;;;;;;5005278;28;20334;-68
2021/09/26 04:02:19;;;;;;;;;;;;;;;;;;4997483;28;19918;-67
2021/09/26 04:04:44;;;;;;;;;;;;;;;;;;5002035;28;19917;-69
2021/09/26 04:07:09;;;;;;;;;;;;;;;;;;4999913;28;19941;-68
2021/09/26 04:09:34;;;;;;;;;;;;;;;;;;4980950;28;19917;-67
2021/09/26 04:12:00;;;;;;;;;;;;;;;;;;4995688;28;20298;-67
2021/09/26 04:14:25;;;;;;;;;;;;;;;;;;4996705;28;20097;-67
2021/09/26 04:16:52;;;;;;;;;;;;;;;;;;5000286;28;19939;-67
2021/09/26 04:19:17;;;;;;;;;;;;;;;;;;4998301;28;19952;-67
2021/09/26 04:21:43;;;;;;;;;;;;;;;;;;4999431;28;20433;-67
2021/09/26 04:24:08;;;;;;;;;;;;;;;;;;4990974;28;20141;-67
2021/09/26 04:26:33;;;;;;;;;;;;;;;;;;4998074;28;19913;-68
2021/09/26 04:28:59;;;;;;;;;;;;;;;;;;5004935;28;19921;-69
2021/09/26 04:31:24;;;;;;;;;;;;;;;;;;4999817;28;20283;-68
2021/09/26 04:33:49;;;;;;;;;;;;;;;;;;4999807;28;19917;-68
2021/09/26 04:36:14;;;;;;;;;;;;;;;;;;4996499;28;19918;-68
2021/09/26 04:38:40;;;;;;;;;;;;;;;;;;4998509;28;19921;-67
2021/09/26 04:41:05;;;;;;;;;;;;;;;;;;4998172;28;19983;-69
2021/09/26 04:43:30;;;;;;;;;;;;;;;;;;4995477;28;19917;-67
2021/09/26 04:45:55;;;;;;;;;;;;;;;;;;4998021;28;19911;-69
2021/09/26 04:48:21;;;;;;;;;;;;;;;;;;4996769;28;19925;-68
2021/09/26 04:50:46;;;;;;;;;;;;;;;;;;4997913;28;19929;-68
2021/09/26 04:53:11;;;;;;;;;;;;;;;;;;4999819;28;19914;-69
2021/09/26 04:55:36;;;;;;;;;;;;;;;;;;4996871;28;19917;-68
2021/09/26 04:58:03;;;;;;;;;;;;;;;;;;4999420;28;19921;-68
2021/09/26 05:00:28;;;;;;;;;;;;;;;;;;5000423;28;19910;-67
2021/09/26 05:02:56;;;;;;;;;;;;;;;;;;5004165;28;20333;-70
2021/09/26 05:05:21;;;;;;;;;;;;;;;;;;4997477;28;20259;-69
2021/09/26 05:07:46;;;;;;;;;;;;;;;;;;4997548;28;19924;-68
2021/09/26 05:10:11;;;;;;;;;;;;;;;;;;4996184;28;20359;-67
2021/09/26 05:12:37;;;;;;;;;;;;;;;;;;4994515;28;19924;-68
2021/09/26 05:15:03;;;;;;;;;;;;;;;;;;4998467;28;19917;-68
2021/09/26 05:17:29;;;;;;;;;;;;;;;;;;4994358;28;20282;-69
2021/09/26 05:19:54;;;;;;;;;;;;;;;;;;4996332;28;20355;-69
2021/09/26 05:22:19;;;;;;;;;;;;;;;;;;5000789;28;20390;-68
2021/09/26 05:24:44;;;;;;;;;;;;;;;;;;4999497;28;20355;-69
2021/09/26 05:27:10;;;;;;;;;;;;;;;;;;4997810;28;19937;-70
2021/09/26 05:29:35;;;;;;;;;;;;;;;;;;4995481;28;19917;-69
2021/09/26 05:32:00;;;;;;;;;;;;;;;;;;4996861;28;19928;-70
2021/09/26 05:34:25;;;;;;;;;;;;;;;;;;4996771;28;19976;-69
2021/09/26 05:36:50;;;;;;;;;;;;;;;;;;4997125;28;19976;-69
2021/09/26 05:39:16;;;;;;;;;;;;;;;;;;4999406;28;19917;-69
2021/09/26 05:41:41;;;;;;;;;;;;;;;;;;5001968;28;19929;-69
2021/09/26 05:44:06;;;;;;;;;;;;;;;;;;5001831;28;20086;-70
2021/09/26 05:46:31;;;;;;;;;;;;;;;;;;4999958;28;19918;-70
2021/09/26 05:48:57;;;;;;;;;;;;;;;;;;5003504;28;19957;-69
2021/09/26 05:51:24;;;;;;;;;;;;;;;;;;5003550;28;19937;-69
2021/09/26 05:53:49;;;;;;;;;;;;;;;;;;5001412;28;19917;-70
2021/09/26 05:56:15;;;;;;;;;;;;;;;;;;5001436;28;19917;-69
2021/09/26 05:58:41;;;;;;;;;;;;;;;;;;5000713;28;20443;-69
2021/09/26 06:01:06;;;;;;;;;;;;;;;;;;4995317;28;19917;-69
2021/09/26 06:03:33;;;;;;;;;;;;;;;;;;4999890;28;21353;-69
2021/09/26 06:05:58;;;;;;;;;;;;;;;;;;5001682;28;19971;-69
2021/09/26 06:08:26;;;;;;;;;;;;;;;;;;4999990;28;19929;-68
2021/09/26 06:10:51;;;;;;;;;;;;;;;;;;5004106;28;19921;-69
2021/09/26 06:13:17;;;;;;;;;;;;;;;;;;5006696;28;20359;-68
2021/09/26 06:15:42;;;;;;;;;;;;;;;;;;5007673;28;19925;-69
2021/09/26 06:18:07;;;;;;;;;;;;;;;;;;5005412;28;19925;-70
2021/09/26 06:20:32;;;;;;;;;;;;;;;;;;5005740;28;19926;-69
2021/09/26 06:22:57;;;;;;;;;;;;;;;;;;5001090;28;19909;-69
2021/09/26 06:25:23;;;;;;;;;;;;;;;;;;5000801;28;19922;-69
2021/09/26 06:27:48;;;;;;;;;;;;;;;;;;5000697;28;20379;-69
2021/09/26 06:30:16;;;;;;;;;;;;;;;;;;4981367;28;19926;-70
2021/09/26 06:32:41;;;;;;;;;;;;;;;;;;5003267;28;19921;-69
2021/09/26 06:35:06;;;;;;;;;;;;;;;;;;5003123;28;20329;-68
2021/09/26 06:37:31;;;;;;;;;;;;;;;;;;5002821;28;20322;-70
2021/09/26 06:39:56;;;;;;;;;;;;;;;;;;5000883;28;19917;-69
2021/09/26 06:42:22;;;;;;;;;;;;;;;;;;5002282;28;19988;-69
2021/09/26 06:44:47;;;;;;;;;;;;;;;;;;5002878;28;19913;-69
2021/09/26 06:47:12;;;;;;;;;;;;;;;;;;5002621;28;19917;-69
2021/09/26 06:49:37;;;;;;;;;;;;;;;;;;4997216;28;19922;-69
2021/09/26 06:52:03;;;;;;;;;;;;;;;;;;5006775;28;19928;-69
2021/09/26 06:54:28;;;;;;;;;;;;;;;;;;5000235;28;19925;-70
2021/09/26 06:56:53;;;;;;;;;;;;;;;;;;4999466;28;19922;-70
2021/09/26 06:59:18;;;;;;;;;;;;;;;;;;4996450;28;19978;-70
2021/09/26 07:01:44;;;;;;;;;;;;;;;;;;5000352;28;19992;-69
2021/09/26 07:04:09;;;;;;;;;;;;;;;;;;4998749;28;20008;-70
2021/09/26 07:06:34;;;;;;;;;;;;;;;;;;4999553;28;19965;-69
2021/09/26 07:08:59;;;;;;;;;;;;;;;;;;4999888;28;20079;-69
2021/09/26 07:11:24;;;;;;;;;;;;;;;;;;5006197;28;19925;-69
2021/09/26 07:13:50;;;;;;;;;;;;;;;;;;5016156;28;19921;-71
2021/09/26 07:16:15;;;;;;;;;;;;;;;;;;4999398;28;20291;-72
2021/09/26 07:18:42;;;;;;;;;;;;;;;;;;4997948;28;19918;-71
2021/09/26 07:21:10;;;;;;;;;;;;;;;;;;4997266;28;19918;-72
2021/09/26 07:23:35;;;;;;;;;;;;;;;;;;4998063;28;19918;-72
2021/09/26 07:26:00;;;;;;;;;;;;;;;;;;5005338;28;20374;-72
2021/09/26 07:28:25;;;;;;;;;;;;;;;;;;5001459;28;19921;-72
2021/09/26 07:30:51;;;;;;;;;;;;;;;;;;5001506;28;19918;-72
2021/09/26 07:33:16;;;;;;;;;;;;;;;;;;4998971;28;19971;-72
2021/09/26 07:35:43;;;;;;;;;;;;;;;;;;5000302;28;19975;-72
2021/09/26 07:38:08;;;;;;;;;;;;;;;;;;4998557;28;19914;-72
2021/09/26 07:40:36;;;;;;;;;;;;;;;;;;4992612;28;19918;-72
2021/09/26 07:43:03;;;;;;;;;;;;;;;;;;4999445;28;20386;-72
2021/09/26 07:45:29;;;;;;;;;;;;;;;;;;4997161;28;19918;-72
2021/09/26 07:47:54;;;;;;;;;;;;;;;;;;4998855;28;19909;-72
2021/09/26 07:50:24;;;;;;;;;;;;;;;;;;4998108;28;19972;-72
2021/09/26 07:52:49;;;;;;;;;;;;;;;;;;5003062;28;19965;-72
2021/09/26 07:55:15;;;;;;;;;;;;;;;;;;4995822;28;19950;-72
2021/09/26 07:57:42;;;;;;;;;;;;;;;;;;4996222;28;20286;-72
2021/09/26 08:00:08;;;;;;;;;;;;;;;;;;4998237;28;19918;-72
2021/09/26 08:02:39;;;;;;;;;;;;;;;;;;4994695;28;19922;-71
2021/09/26 08:05:04;;;;;;;;;;;;;;;;;;5003257;28;19929;-72
2021/09/26 08:07:30;;;;;;;;;;;;;;;;;;5002031;28;19917;-72
2021/09/26 08:09:55;;;;;;;;;;;;;;;;;;4996526;28;20334;-72
2021/09/26 08:12:20;;;;;;;;;;;;;;;;;;4996631;28;20334;-72
2021/09/26 08:14:45;;;;;;;;;;;;;;;;;;4998753;28;19922;-72
2021/09/26 08:17:10;;;;;;;;;;;;;;;;;;4997164;28;19956;-72
2021/09/26 08:19:38;;;;;;;;;;;;;;;;;;4995463;28;20185;-72
2021/09/26 08:22:03;;;;;;;;;;;;;;;;;;4998946;28;19968;-70
2021/09/26 08:24:28;;;;;;;;;;;;;;;;;;4998497;28;19973;-71
2021/09/26 08:26:54;;;;;;;;;;;;;;;;;;4996843;28;19921;-70
2021/09/26 08:29:19;;;;;;;;;;;;;;;;;;4998238;28;19975;-70
2021/09/26 08:31:44;;;;;;;;;;;;;;;;;;4998129;28;19968;-71
2021/09/26 08:34:09;;;;;;;;;;;;;;;;;;5004216;28;19922;-70
2021/09/26 08:36:35;;;;;;;;;;;;;;;;;;4993631;28;19925;-71
2021/09/26 08:39:00;;;;;;;;;;;;;;;;;;4996388;28;20283;-70
2021/09/26 08:41:27;;;;;;;;;;;;;;;;;;4996995;28;19917;-70
2021/09/26 08:43:53;;;;;;;;;;;;;;;;;;5000250;28;19917;-71
2021/09/26 08:46:18;;;;;;;;;;;;;;;;;;4999180;28;20310;-70
2021/09/26 08:48:43;;;;;;;;;;;;;;;;;;4999351;28;19929;-70
2021/09/26 08:51:09;;;;;;;;;;;;;;;;;;4987765;28;19938;-70
2021/09/26 08:53:34;;;;;;;;;;;;;;;;;;4997438;28;19996;-70
2021/09/26 08:55:59;;;;;;;;;;;;;;;;;;4986198;28;19920;-70
2021/09/26 08:58:24;;;;;;;;;;;;;;;;;;4978065;28;20434;-70
2021/09/26 09:00:50;;;;;;;;;;;;;;;;;;4996547;28;20364;-70
2021/09/26 09:03:15;;;;;;;;;;;;;;;;;;4995229;28;20329;-70
2021/09/26 09:05:40;;;;;;;;;;;;;;;;;;4996071;28;20470;-70
2021/09/26 09:08:05;;;;;;;;;;;;;;;;;;4998002;28;20031;-70
2021/09/26 09:10:31;;;;;;;;;;;;;;;;;;5001550;28;19922;-71
2021/09/26 09:12:56;;;;;;;;;;;;;;;;;;5002362;28;20000;-71
2021/09/26 09:15:21;;;;;;;;;;;;;;;;;;4998141;28;20362;-71
2021/09/26 09:17:46;;;;;;;;;;;;;;;;;;4975583;28;20048;-71
2021/09/26 09:20:12;;;;;;;;;;;;;;;;;;4995685;28;20271;-72
2021/09/26 09:22:37;;;;;;;;;;;;;;;;;;5002047;28;19918;-72
2021/09/26 09:25:02;;;;;;;;;;;;;;;;;;4999709;28;20004;-72
2021/09/26 09:27:27;;;;;;;;;;;;;;;;;;4986230;28;19924;-70
2021/09/26 09:29:53;;;;;;;;;;;;;;;;;;5001248;28;20012;-69
2021/09/26 09:32:18;;;;;;;;;;;;;;;;;;4978355;28;19922;-70
2021/09/26 09:34:43;;;;;;;;;;;;;;;;;;4996616;28;20405;-71
2021/09/26 09:37:09;;;;;;;;;;;;;;;;;;4998411;28;20009;-71
2021/09/26 09:39:34;;;;;;;;;;;;;;;;;;4986899;28;19933;-70
2021/09/26 09:42:00;;;;;;;;;;;;;;;;;;4997842;28;20381;-71
2021/09/26 09:44:25;;;;;;;;;;;;;;;;;;4998424;28;20326;-69
2021/09/26 09:46:52;;;;;;;;;;;;;;;;;;4996738;28;19917;-71
2021/09/26 09:49:18;;;;;;;;;;;;;;;;;;4994520;28;19929;-71
2021/09/26 09:51:43;;;;;;;;;;;;;;;;;;4997482;28;20236;-71
2021/09/26 09:54:08;;;;;;;;;;;;;;;;;;4997473;28;19918;-71
2021/09/26 09:56:34;;;;;;;;;;;;;;;;;;5003167;28;19918;-71
2021/09/26 09:59:00;;;;;;;;;;;;;;;;;;4998332;28;19918;-71
2021/09/26 10:01:25;;;;;;;;;;;;;;;;;;4999457;28;20012;-71
2021/09/26 10:03:51;;;;;;;;;;;;;;;;;;4997376;28;20446;-71
2021/09/26 10:06:16;;;;;;;;;;;;;;;;;;4998223;28;19977;-70
2021/09/26 10:08:41;;;;;;;;;;;;;;;;;;4978770;28;19922;-69
2021/09/26 10:11:06;;;;;;;;;;;;;;;;;;5001564;28;20168;-73
2021/09/26 10:13:32;;;;;;;;;;;;;;;;;;4995681;28;19965;-72
2021/09/26 10:15:57;;;;;;;;;;;;;;;;;;4996903;28;20784;-71
2021/09/26 10:18:22;;;;;;;;;;;;;;;;;;5002885;28;20440;-71
2021/09/26 10:20:50;;;;;;;;;;;;;;;;;;5003278;28;19913;-71
2021/09/26 10:23:15;;;;;;;;;;;;;;;;;;5001525;28;20435;-71
2021/09/26 10:25:40;;;;;;;;;;;;;;;;;;4999579;28;19924;-70
2021/09/26 10:28:05;;;;;;;;;;;;;;;;;;5001038;28;19921;-71
2021/09/26 10:30:31;;;;;;;;;;;;;;;;;;5005136;28;19928;-72
2021/09/26 10:32:59;;;;;;;;;;;;;;;;;;4999620;28;19914;-69
2021/09/26 10:35:26;;;;;;;;;;;;;;;;;;4999293;28;20437;-71
2021/09/26 10:37:51;;;;;;;;;;;;;;;;;;4998906;28;19967;-71
2021/09/26 10:40:16;;;;;;;;;;;;;;;;;;4999704;28;19917;-71
2021/09/26 10:42:42;;;;;;;;;;;;;;;;;;5001750;28;19922;-70
2021/09/26 10:45:07;;;;;;;;;;;;;;;;;;5006180;28;20003;-71
2021/09/26 10:47:32;;;;;;;;;;;;;;;;;;4999173;28;20627;-70
2021/09/26 10:49:57;;;;;;;;;;;;;;;;;;4994650;28;19984;-70
2021/09/26 10:52:23;;;;;;;;;;;;;;;;;;4999007;28;19921;-70
2021/09/26 10:54:48;;;;;;;;;;;;;;;;;;4997977;28;20208;-70
2021/09/26 10:57:13;;;;;;;;;;;;;;;;;;5005257;28;19917;-71
2021/09/26 10:59:41;;;;;;;;;;;;;;;;;;5002321;28;19924;-69
2021/09/26 11:02:06;;;;;;;;;;;;;;;;;;5001459;28;19922;-70
2021/09/26 11:04:31;;;;;;;;;;;;;;;;;;5001382;28;20009;-71
2021/09/26 11:06:56;;;;;;;;;;;;;;;;;;5000870;28;19917;-70
2021/09/26 11:09:22;;;;;;;;;;;;;;;;;;4999628;28;19922;-71
2021/09/26 11:11:47;;;;;;;;;;;;;;;;;;4999526;28;19922;-70
2021/09/26 11:14:12;;;;;;;;;;;;;;;;;;4997977;28;19913;-70
2021/09/26 11:16:37;;;;;;;;;;;;;;;;;;5002158;28;19923;-71
2021/09/26 11:19:03;;;;;;;;;;;;;;;;;;5002087;28;19918;-70
2021/09/26 11:21:28;;;;;;;;;;;;;;;;;;5002605;28;19913;-71
2021/09/26 11:23:53;;;;;;;;;;;;;;;;;;4999456;28;19921;-70
2021/09/26 11:26:18;;;;;;;;;;;;;;;;;;5001053;28;19913;-71
2021/09/26 11:28:43;;;;;;;;;;;;;;;;;;4999295;28;19991;-70
2021/09/26 11:31:09;;;;;;;;;;;;;;;;;;4999222;28;20369;-71
2021/09/26 11:33:37;;;;;;;;;;;;;;;;;;4999370;28;19922;-71
2021/09/26 11:36:02;;;;;;;;;;;;;;;;;;4996446;28;19929;-70
2021/09/26 11:38:27;;;;;;;;;;;;;;;;;;4980616;28;19939;-70
2021/09/26 11:40:53;;;;;;;;;;;;;;;;;;5000141;28;20096;-70
2021/09/26 11:43:18;;;;;;;;;;;;;;;;;;5001740;28;19918;-70
2021/09/26 11:45:43;;;;;;;;;;;;;;;;;;5000809;28;19917;-70
2021/09/26 11:48:08;;;;;;;;;;;;;;;;;;5000488;28;19917;-72
2021/09/26 11:50:34;;;;;;;;;;;;;;;;;;4997803;28;19921;-70
2021/09/26 11:52:59;;;;;;;;;;;;;;;;;;4999787;28;19917;-70
2021/09/26 11:55:24;;;;;;;;;;;;;;;;;;4984014;28;19921;-71
2021/09/26 11:57:49;;;;;;;;;;;;;;;;;;5000188;28;20386;-71
2021/09/26 12:00:14;;;;;;;;;;;;;;;;;;5000974;28;20383;-70
2021/09/26 12:02:40;;;;;;;;;;;;;;;;;;5005410;28;20573;-71
2021/09/26 12:05:05;;;;;;;;;;;;;;;;;;5000109;28;20734;-71
2021/09/26 12:07:31;;;;;;;;;;;;;;;;;;4998376;28;19941;-71
2021/09/26 12:09:56;;;;;;;;;;;;;;;;;;4979883;28;20366;-70
2021/09/26 12:12:22;;;;;;;;;;;;;;;;;;5004771;28;19922;-70
2021/09/26 12:14:47;;;;;;;;;;;;;;;;;;4999858;28;20283;-71
2021/09/26 12:17:12;;;;;;;;;;;;;;;;;;4998391;28;20032;-70
2021/09/26 12:19:40;;;;;;;;;;;;;;;;;;4997849;28;19918;-71
2021/09/26 12:22:05;;;;;;;;;;;;;;;;;;4999049;28;19918;-70
2021/09/26 12:24:31;;;;;;;;;;;;;;;;;;4999264;28;20004;-70
2021/09/26 12:26:56;;;;;;;;;;;;;;;;;;5000211;28;19967;-70
2021/09/26 12:29:21;;;;;;;;;;;;;;;;;;5000346;28;19964;-72
2021/09/26 12:31:51;;;;;;;;;;;;;;;;;;5000457;28;20454;-71
2021/09/26 12:34:16;;;;;;;;;;;;;;;;;;5003914;28;19971;-71
2021/09/26 12:36:41;;;;;;;;;;;;;;;;;;4998941;28;19921;-70
2021/09/26 12:39:06;;;;;;;;;;;;;;;;;;4999999;28;20036;-70
2021/09/26 12:41:31;;;;;;;;;;;;;;;;;;4998624;28;20334;-71
2021/09/26 12:43:58;;;;;;;;;;;;;;;;;;4997035;28;19913;-70
2021/09/26 12:46:23;;;;;;;;;;;;;;;;;;4998219;28;20179;-70
2021/09/26 12:48:49;;;;;;;;;;;;;;;;;;4998641;28;20383;-71
2021/09/26 12:51:14;;;;;;;;;;;;;;;;;;4999552;28;20341;-71
2021/09/26 12:53:39;;;;;;;;;;;;;;;;;;4997302;28;20464;-70
2021/09/26 12:56:04;;;;;;;;;;;;;;;;;;4976973;28;20453;-71
2021/09/26 12:58:29;;;;;;;;;;;;;;;;;;5004673;28;19940;-71
2021/09/26 13:00:55;;;;;;;;;;;;;;;;;;5000832;28;20024;-71
2021/09/26 13:03:20;;;;;;;;;;;;;;;;;;4997878;28;20044;-72
2021/09/26 13:05:45;;;;;;;;;;;;;;;;;;4997232;28;20196;-71
2021/09/26 13:08:12;;;;;;;;;;;;;;;;;;4993980;28;19921;-71
2021/09/26 13:10:38;;;;;;;;;;;;;;;;;;4999211;28;19922;-70
2021/09/26 13:13:03;;;;;;;;;;;;;;;;;;4992586;28;19960;-71
2021/09/26 13:15:36;;;;;;;;;;;;;;;;;;4999477;28;19921;-71
2021/09/26 13:18:01;;;;;;;;;;;;;;;;;;4998941;28;19918;-72
2021/09/26 13:20:26;;;;;;;;;;;;;;;;;;4997160;28;19918;-71
2021/09/26 13:22:51;;;;;;;;;;;;;;;;;;4997709;28;19918;-71
2021/09/26 13:25:17;;;;;;;;;;;;;;;;;;4997416;28;19967;-71
2021/09/26 13:27:42;;;;;;;;;;;;;;;;;;4999932;28;19929;-71
2021/09/26 13:30:07;;;;;;;;;;;;;;;;;;4997724;28;19993;-72
2021/09/26 13:32:32;;;;;;;;;;;;;;;;;;4998305;28;20364;-72
2021/09/26 13:34:58;;;;;;;;;;;;;;;;;;4993909;28;19944;-71
2021/09/26 13:37:23;;;;;;;;;;;;;;;;;;4998346;28;20006;-72
2021/09/26 13:39:48;;;;;;;;;;;;;;;;;;5002376;28;19917;-71
2021/09/26 13:42:16;;;;;;;;;;;;;;;;;;4999207;28;20651;-70
2021/09/26 13:44:41;;;;;;;;;;;;;;;;;;5001998;28;19918;-72
2021/09/26 13:47:06;;;;;;;;;;;;;;;;;;4997061;28;19925;-71
2021/09/26 13:49:32;;;;;;;;;;;;;;;;;;4993307;28;19922;-72
2021/09/26 13:51:57;;;;;;;;;;;;;;;;;;5003342;28;20324;-70
2021/09/26 13:54:22;;;;;;;;;;;;;;;;;;4998121;28;20342;-71
2021/09/26 13:56:47;;;;;;;;;;;;;;;;;;5004232;28;20358;-72
2021/09/26 13:59:12;;;;;;;;;;;;;;;;;;5001120;28;19917;-70
2021/09/26 14:01:38;;;;;;;;;;;;;;;;;;4984747;28;19924;-72
2021/09/26 14:04:03;;;;;;;;;;;;;;;;;;5004513;28;20370;-71
2021/09/26 14:06:28;;;;;;;;;;;;;;;;;;5002756;28;20298;-70
2021/09/26 14:08:53;;;;;;;;;;;;;;;;;;5001786;28;19940;-71
2021/09/26 14:11:19;;;;;;;;;;;;;;;;;;5003341;28;20009;-71
2021/09/26 14:13:44;;;;;;;;;;;;;;;;;;5002308;28;19988;-71
2021/09/26 14:16:09;;;;;;;;;;;;;;;;;;5001031;28;19963;-71
2021/09/26 14:18:34;;;;;;;;;;;;;;;;;;5000108;28;20031;-72
2021/09/26 14:21:00;;;;;;;;;;;;;;;;;;4994556;28;19920;-72
2021/09/26 14:23:25;;;;;;;;;;;;;;;;;;4998904;28;19921;-71
2021/09/26 14:25:50;;;;;;;;;;;;;;;;;;4998520;28;19914;-71
2021/09/26 14:28:15;;;;;;;;;;;;;;;;;;4997961;28;19921;-71
2021/09/26 14:30:41;;;;;;;;;;;;;;;;;;4998517;28;19921;-71
2021/09/26 14:33:06;;;;;;;;;;;;;;;;;;4998090;28;19924;-71
2021/09/26 14:35:31;;;;;;;;;;;;;;;;;;4999069;28;19917;-71
2021/09/26 14:37:58;;;;;;;;;;;;;;;;;;5002728;28;20309;-71
2021/09/26 14:40:23;;;;;;;;;;;;;;;;;;5004605;28;20342;-71
2021/09/26 14:42:48;;;;;;;;;;;;;;;;;;5001107;28;19957;-71
2021/09/26 14:45:13;;;;;;;;;;;;;;;;;;5000706;28;20004;-71
2021/09/26 14:47:38;;;;;;;;;;;;;;;;;;5004030;28;20279;-71
2021/09/26 14:50:05;;;;;;;;;;;;;;;;;;4995365;28;20334;-67
2021/09/26 14:52:30;;;;;;;;;;;;;;;;;;5003934;28;20271;-68
2021/09/26 14:54:56;;;;;;;;;;;;;;;;;;4998951;28;20421;-67
2021/09/26 14:57:21;;;;;;;;;;;;;;;;;;5002801;28;19918;-67
2021/09/26 14:59:46;;;;;;;;;;;;;;;;;;4996407;28;20295;-68
2021/09/26 15:02:14;;;;;;;;;;;;;;;;;;5000148;28;20469;-68
2021/09/26 15:04:39;;;;;;;;;;;;;;;;;;5000246;28;19918;-69
2021/09/26 15:07:04;;;;;;;;;;;;;;;;;;5004340;28;20503;-69
2021/09/26 15:09:29;;;;;;;;;;;;;;;;;;4998095;28;20428;-70
2021/09/26 15:11:57;;;;;;;;;;;;;;;;;;4996666;28;20014;-68
2021/09/26 15:14:22;;;;;;;;;;;;;;;;;;4998180;28;19917;-68
2021/09/26 15:16:47;;;;;;;;;;;;;;;;;;5000891;28;19921;-69
2021/09/26 15:19:12;;;;;;;;;;;;;;;;;;4986425;28;19917;-69
2021/09/26 15:21:38;;;;;;;;;;;;;;;;;;4996808;28;20288;-68
2021/09/26 15:24:03;;;;;;;;;;;;;;;;;;5002817;28;20443;-68
2021/09/26 15:26:28;;;;;;;;;;;;;;;;;;4995144;28;20331;-68
2021/09/26 15:28:53;;;;;;;;;;;;;;;;;;4999022;28;20024;-69
2021/09/26 15:31:19;;;;;;;;;;;;;;;;;;4997189;28;19922;-68
2021/09/26 15:33:44;;;;;;;;;;;;;;;;;;4996144;28;20274;-68
2021/09/26 15:36:09;;;;;;;;;;;;;;;;;;4997840;28;19925;-69
2021/09/26 15:38:34;;;;;;;;;;;;;;;;;;4994488;28;20226;-68
2021/09/26 15:41:00;;;;;;;;;;;;;;;;;;4998047;28;19961;-68
2021/09/26 15:43:25;;;;;;;;;;;;;;;;;;4999366;28;19918;-68
2021/09/26 15:45:50;;;;;;;;;;;;;;;;;;4997356;28;20302;-68
2021/09/26 15:48:15;;;;;;;;;;;;;;;;;;4998404;28;19964;-68
2021/09/26 15:50:41;;;;;;;;;;;;;;;;;;5004875;28;19980;-68
2021/09/26 15:53:06;;;;;;;;;;;;;;;;;;4995807;28;20268;-68
2021/09/26 15:55:31;;;;;;;;;;;;;;;;;;4993105;28;19954;-68
2021/09/26 15:57:57;;;;;;;;;;;;;;;;;;4997360;28;20414;-68
2021/09/26 16:00:23;;;;;;;;;;;;;;;;;;4996846;28;19917;-67
2021/09/26 16:02:48;;;;;;;;;;;;;;;;;;4997608;28;20283;-68
2021/09/26 16:05:13;;;;;;;;;;;;;;;;;;5003982;28;19917;-68
2021/09/26 16:07:38;;;;;;;;;;;;;;;;;;4995114;28;19918;-68
2021/09/26 16:10:04;;;;;;;;;;;;;;;;;;4996700;28;20016;-68
2021/09/26 16:12:29;;;;;;;;;;;;;;;;;;4999622;28;20434;-68
2021/09/26 16:14:57;;;;;;;;;;;;;;;;;;4997595;28;20533;-68
2021/09/26 16:17:22;;;;;;;;;;;;;;;;;;4998474;28;19957;-69
2021/09/26 16:19:48;;;;;;;;;;;;;;;;;;4998098;28;20011;-69
2021/09/26 16:22:13;;;;;;;;;;;;;;;;;;4997387;28;20338;-69
2021/09/26 16:24:39;;;;;;;;;;;;;;;;;;4998191;28;20438;-69
2021/09/26 16:27:06;;;;;;;;;;;;;;;;;;4997652;28;19976;-68
2021/09/26 16:29:31;;;;;;;;;;;;;;;;;;4998698;28;20008;-68
2021/09/26 16:31:57;;;;;;;;;;;;;;;;;;4999498;28;20072;-69
2021/09/26 16:34:22;;;;;;;;;;;;;;;;;;4997469;28;20001;-68